createdAt,value
2023-05-09T00:00:17.783Z,90.01
2023-05-09T00:02:48.204Z,90.72
2023-05-09T00:05:16.584Z,90.84
2023-05-09T00:07:43.974Z,90.49
2023-05-09T00:10:12.478Z,90.04
2023-05-09T00:12:40.166Z,89.89
2023-05-09T00:15:08.702Z,89.40
2023-05-09T00:17:36.797Z,89.27
2023-05-09T00:20:08.139Z,89.09
2023-05-09T00:22:37.388Z,88.85
2023-05-09T00:25:05.138Z,89.15
2023-05-09T00:27:39.018Z,89.89
2023-05-09T00:30:13.614Z,90.74
2023-05-09T00:32:41.823Z,91.49
2023-05-09T00:35:10.627Z,91.71
2023-05-09T00:37:38.035Z,91.85
2023-05-09T00:40:06.864Z,91.73
2023-05-09T00:42:34.463Z,91.57
2023-05-09T00:45:08.869Z,91.12
2023-05-09T00:47:42.167Z,91.76
2023-05-09T00:50:10.187Z,92.07
2023-05-09T00:52:37.878Z,92.65
2023-05-09T00:55:08.675Z,93.52
2023-05-09T00:57:36.749Z,93.63
2023-05-09T01:00:05.699Z,93.67
2023-05-09T01:02:33.530Z,94.54
2023-05-09T01:05:02.340Z,96.14
2023-05-09T01:08:07.845Z,96.78
2023-05-09T01:10:51.221Z,98.78
2023-05-09T01:13:29.258Z,100.00
2023-05-09T01:16:09.547Z,100.00
2023-05-09T01:19:01.863Z,98.90
2023-05-09T01:21:32.663Z,97.30
2023-05-09T01:24:12.273Z,97.19
2023-05-09T01:27:18.385Z,97.37
2023-05-09T01:29:49.138Z,96.80
2023-05-09T01:32:25.248Z,96.43
2023-05-09T01:35:04.774Z,97.81
2023-05-09T01:37:38.462Z,99.84
2023-05-09T01:40:16.973Z,100.00
2023-05-09T01:42:49.384Z,100.00
2023-05-09T01:45:18.094Z,100.00
2023-05-09T01:47:49.239Z,100.00
2023-05-09T01:50:19.288Z,100.00
2023-05-09T01:52:49.946Z,100.00
2023-05-09T01:55:21.942Z,100.00
2023-05-09T01:57:50.682Z,100.00
2023-05-09T02:00:19.793Z,100.00
2023-05-09T02:02:47.170Z,100.00
2023-05-09T02:05:16.048Z,100.00
2023-05-09T02:07:45.226Z,100.00
2023-05-09T02:10:13.185Z,100.00
2023-05-09T02:12:42.791Z,100.00
2023-05-09T02:15:10.504Z,100.00
2023-05-09T02:17:43.753Z,100.00
2023-05-09T02:20:12.314Z,100.00
2023-05-09T02:22:43.987Z,99.21
2023-05-09T02:25:16.072Z,99.71
2023-05-09T02:27:46.554Z,100.00
2023-05-09T02:30:23.650Z,100.00
2023-05-09T02:32:55.655Z,100.00
2023-05-09T02:35:25.464Z,100.00
2023-05-09T02:37:54.520Z,100.00
2023-05-09T02:40:23.039Z,100.00
2023-05-09T02:42:50.572Z,100.00
2023-05-09T02:45:18.235Z,100.00
2023-05-09T02:47:47.653Z,100.00
2023-05-09T02:50:15.013Z,100.00
2023-05-09T02:52:43.429Z,100.00
2023-05-09T02:55:12.195Z,100.00
2023-05-09T02:57:42.014Z,100.00
2023-05-09T03:00:10.084Z,100.00
2023-05-09T03:02:38.485Z,100.00
2023-05-09T03:05:06.349Z,100.00
2023-05-09T03:07:34.457Z,100.00
2023-05-09T03:10:01.824Z,100.00
2023-05-09T03:12:29.131Z,100.00
2023-05-09T03:14:56.784Z,100.00
2023-05-09T03:17:24.219Z,100.00
2023-05-09T03:19:51.626Z,100.00
2023-05-09T03:22:19.059Z,100.00
2023-05-09T03:24:47.669Z,100.00
2023-05-09T03:27:15.085Z,100.00
2023-05-09T03:29:42.489Z,100.00
2023-05-09T03:32:11.660Z,100.00
2023-05-09T03:34:40.499Z,100.00
2023-05-09T03:37:08.012Z,100.00
2023-05-09T03:39:37.577Z,100.00
2023-05-09T03:42:07.460Z,100.00
2023-05-09T03:44:35.031Z,100.00
2023-05-09T03:47:03.545Z,100.00
2023-05-09T03:49:31.926Z,100.00
2023-05-09T03:51:59.372Z,100.00
2023-05-09T03:54:26.888Z,100.00
2023-05-09T03:56:54.378Z,100.00
2023-05-09T03:59:21.927Z,100.00
2023-05-09T04:01:49.130Z,100.00
2023-05-09T04:04:19.017Z,100.00
2023-05-09T04:06:56.372Z,100.00
2023-05-09T04:09:23.960Z,100.00
2023-05-09T04:11:56.934Z,100.00
2023-05-09T04:14:25.138Z,100.00
2023-05-09T04:16:52.535Z,100.00
2023-05-09T04:19:20.321Z,99.75
2023-05-09T04:21:49.738Z,99.67
2023-05-09T04:24:18.188Z,99.42
2023-05-09T04:26:46.471Z,99.67
2023-05-09T04:29:16.078Z,99.42
2023-05-09T04:31:43.355Z,98.82
2023-05-09T04:34:10.811Z,98.85
2023-05-09T04:36:37.906Z,98.60
2023-05-09T04:39:08.764Z,98.17
2023-05-09T04:41:36.127Z,97.94
2023-05-09T04:44:03.728Z,97.59
2023-05-09T04:46:31.246Z,96.59
2023-05-09T04:48:58.520Z,95.62
2023-05-09T04:51:26.407Z,95.38
2023-05-09T04:53:53.910Z,95.25
2023-05-09T04:56:22.203Z,95.17
2023-05-09T04:58:49.567Z,94.80
2023-05-09T05:01:17.156Z,94.47
2023-05-09T05:03:44.418Z,94.59
2023-05-09T05:06:14.887Z,93.77
2023-05-09T05:08:42.324Z,93.94
2023-05-09T05:11:09.889Z,93.89
2023-05-09T05:13:37.197Z,92.42
2023-05-09T05:16:04.947Z,92.71
2023-05-09T05:18:34.312Z,92.57
2023-05-09T05:21:01.575Z,92.13
2023-05-09T05:23:29.355Z,91.90
2023-05-09T05:25:57.612Z,91.69
2023-05-09T05:28:26.133Z,91.43
2023-05-09T05:30:53.466Z,91.04
2023-05-09T05:33:21.436Z,90.72
2023-05-09T05:35:49.987Z,90.68
2023-05-09T05:38:17.425Z,89.86
2023-05-09T05:40:45.011Z,89.39
2023-05-09T05:43:13.241Z,89.20
2023-05-09T05:45:41.999Z,90.24
2023-05-09T05:48:09.268Z,88.45
2023-05-09T05:50:37.065Z,87.41
2023-05-09T05:53:04.518Z,87.24
2023-05-09T05:55:31.752Z,86.62
2023-05-09T05:57:59.072Z,85.78
2023-05-09T06:00:26.602Z,85.37
2023-05-09T06:02:53.760Z,84.76
2023-05-09T06:05:22.052Z,83.25
2023-05-09T06:07:51.534Z,83.73
2023-05-09T06:10:19.060Z,81.65
2023-05-09T06:12:46.512Z,81.94
2023-05-09T06:15:15.196Z,79.76
2023-05-09T06:17:43.130Z,77.75
2023-05-09T06:20:10.593Z,76.87
2023-05-09T06:22:37.829Z,77.66
2023-05-09T06:25:06.442Z,74.47
2023-05-09T06:27:35.268Z,74.94
2023-05-09T06:30:14.124Z,73.47
2023-05-09T06:32:51.186Z,71.97
2023-05-09T06:35:18.786Z,71.53
2023-05-09T06:37:48.243Z,69.33
2023-05-09T06:40:17.765Z,69.09
2023-05-09T06:42:46.285Z,70.76
2023-05-09T06:45:13.887Z,67.41
2023-05-09T06:47:41.491Z,66.88
2023-05-09T06:50:09.432Z,65.85
2023-05-09T06:52:37.061Z,64.89
2023-05-09T06:55:05.782Z,64.79
2023-05-09T06:57:33.102Z,65.51
2023-05-09T07:00:02.462Z,65.26
2023-05-09T07:02:29.537Z,64.61
2023-05-09T07:04:56.972Z,65.13
2023-05-09T07:07:24.499Z,63.36
2023-05-09T07:09:55.201Z,62.99
2023-05-09T07:12:28.007Z,62.45
2023-05-09T07:14:55.402Z,63.32
2023-05-09T07:17:24.127Z,61.75
2023-05-09T07:19:52.084Z,62.83
2023-05-09T07:22:19.416Z,64.72
2023-05-09T07:24:48.800Z,60.73
2023-05-09T07:27:17.310Z,60.68
2023-05-09T07:29:45.801Z,59.48
2023-05-09T07:32:13.301Z,59.67
2023-05-09T07:34:41.634Z,58.87
2023-05-09T07:37:09.124Z,58.31
2023-05-09T07:39:36.711Z,59.53
2023-05-09T07:42:04.268Z,58.27
2023-05-09T07:44:31.640Z,57.71
2023-05-09T07:47:02.916Z,57.10
2023-05-09T07:49:30.014Z,57.43
2023-05-09T07:51:58.583Z,57.14
2023-05-09T07:54:25.988Z,57.15
2023-05-09T07:56:53.706Z,55.49
2023-05-09T07:59:22.145Z,55.52
2023-05-09T08:01:49.282Z,54.67
2023-05-09T08:04:25.165Z,54.83
2023-05-09T08:06:59.784Z,54.03
2023-05-09T08:09:27.052Z,54.67
2023-05-09T08:12:13.108Z,55.14
2023-05-09T08:14:47.543Z,52.86
2023-05-09T08:17:14.984Z,52.82
2023-05-09T08:19:42.568Z,52.85
2023-05-09T08:22:09.941Z,52.88
2023-05-09T08:24:37.463Z,53.81
2023-05-09T08:27:04.727Z,53.03
2023-05-09T08:29:32.311Z,53.24
2023-05-09T08:31:59.767Z,52.52
2023-05-09T08:34:28.274Z,51.31
2023-05-09T08:37:04.155Z,51.29
2023-05-09T08:39:35.080Z,52.14
2023-05-09T08:42:03.120Z,52.30
2023-05-09T08:44:36.723Z,52.36
2023-05-09T08:47:05.223Z,53.10
2023-05-09T08:49:33.706Z,51.51
2023-05-09T08:52:01.336Z,49.96
2023-05-09T08:54:30.324Z,50.66
2023-05-09T08:56:58.170Z,50.46
2023-05-09T08:59:27.472Z,50.75
2023-05-09T09:01:55.226Z,49.46
2023-05-09T09:04:23.363Z,50.04
2023-05-09T09:06:52.208Z,50.18
2023-05-09T09:09:20.855Z,50.17
2023-05-09T09:11:49.193Z,48.42
2023-05-09T09:14:23.954Z,48.36
2023-05-09T09:16:53.380Z,47.70
2023-05-09T09:19:23.105Z,46.90
2023-05-09T09:21:56.429Z,49.46
2023-05-09T09:24:24.056Z,47.20
2023-05-09T09:26:57.725Z,47.79
2023-05-09T09:29:29.022Z,48.00
2023-05-09T09:31:56.493Z,47.26
2023-05-09T09:34:24.668Z,44.24
2023-05-09T09:36:52.280Z,43.48
2023-05-09T09:39:19.756Z,44.62
2023-05-09T09:41:47.175Z,45.06
2023-05-09T09:44:19.473Z,44.66
2023-05-09T09:46:54.963Z,42.50
2023-05-09T09:49:23.982Z,41.49
2023-05-09T09:51:56.051Z,42.41
2023-05-09T09:54:27.636Z,42.59
2023-05-09T09:57:02.321Z,43.03
2023-05-09T09:59:29.849Z,42.99
2023-05-09T10:02:00.146Z,42.46
2023-05-09T10:04:31.392Z,42.63
2023-05-09T10:07:00.966Z,40.81
2023-05-09T10:09:28.924Z,39.74
2023-05-09T10:11:57.464Z,40.81
2023-05-09T10:14:27.010Z,39.18
2023-05-09T10:16:58.066Z,40.45
2023-05-09T10:19:28.878Z,39.47
2023-05-09T10:21:59.040Z,39.36
2023-05-09T10:25:01.324Z,40.25
2023-05-09T10:27:32.995Z,38.96
2023-05-09T10:30:09.087Z,38.96
2023-05-09T10:32:58.427Z,38.61
2023-05-09T10:35:31.339Z,39.08
2023-05-09T10:37:59.480Z,37.36
2023-05-09T10:40:28.475Z,37.99
2023-05-09T10:42:57.175Z,38.58
2023-05-09T10:45:24.744Z,38.43
2023-05-09T10:47:53.544Z,38.35
2023-05-09T10:50:21.952Z,38.84
2023-05-09T10:53:05.380Z,37.79
2023-05-09T10:55:48.186Z,37.99
2023-05-09T10:58:20.618Z,39.33
2023-05-09T11:00:55.217Z,38.70
2023-05-09T11:03:30.268Z,39.62
2023-05-09T11:05:59.343Z,38.18
2023-05-09T11:08:31.260Z,38.60
2023-05-09T11:11:05.991Z,37.29
2023-05-09T11:13:41.041Z,40.25
2023-05-09T11:16:12.551Z,37.46
2023-05-09T11:18:53.682Z,37.74
2023-05-09T11:21:21.440Z,37.72
2023-05-09T11:23:49.905Z,37.90
2023-05-09T11:26:22.776Z,38.23
2023-05-09T11:28:54.543Z,38.74
2023-05-09T11:31:22.098Z,40.53
2023-05-09T11:33:56.550Z,39.74
2023-05-09T11:36:32.500Z,36.71
2023-05-09T11:39:10.991Z,36.87
2023-05-09T11:41:51.555Z,35.78
2023-05-09T11:44:21.391Z,36.59
2023-05-09T11:46:50.252Z,37.26
2023-05-09T11:49:19.748Z,37.04
2023-05-09T11:51:47.211Z,37.13
2023-05-09T11:54:15.421Z,35.67
2023-05-09T11:56:42.877Z,37.28
2023-05-09T11:59:14.952Z,37.06
2023-05-09T12:01:42.949Z,36.42
2023-05-09T12:04:12.339Z,36.61
2023-05-09T12:06:39.814Z,37.31
2023-05-09T12:09:10.505Z,38.30
2023-05-09T12:11:38.712Z,37.62
2023-05-09T12:14:06.300Z,38.48
2023-05-09T12:16:33.747Z,40.42
2023-05-09T12:19:01.989Z,40.26
2023-05-09T12:21:29.951Z,39.83
2023-05-09T12:23:57.951Z,39.60
2023-05-09T12:26:25.935Z,37.59
2023-05-09T12:28:53.429Z,35.23
2023-05-09T12:31:21.304Z,34.33
2023-05-09T12:33:48.693Z,34.50
2023-05-09T12:36:17.056Z,35.17
2023-05-09T12:38:56.938Z,34.69
2023-05-09T12:43:56.938Z,35.95
2023-05-09T12:46:24.646Z,35.87
2023-05-09T12:48:53.116Z,36.39
2023-05-09T12:51:22.549Z,35.31
2023-05-09T12:53:50.406Z,36.41
2023-05-09T12:56:20.052Z,38.32
2023-05-09T12:58:52.603Z,36.85
2023-05-09T13:01:21.579Z,37.54
2023-05-09T13:04:02.078Z,36.48
2023-05-09T13:06:29.527Z,36.13
2023-05-09T13:09:09.217Z,38.12
2023-05-09T13:11:38.200Z,36.87
2023-05-09T13:14:06.000Z,37.27
2023-05-09T13:16:33.724Z,36.88
2023-05-09T13:19:02.252Z,36.20
2023-05-09T13:21:32.280Z,37.04
2023-05-09T13:24:06.530Z,37.18
2023-05-09T13:26:34.512Z,36.07
2023-05-09T13:29:02.141Z,36.89
2023-05-09T13:31:29.789Z,36.73
2023-05-09T13:33:58.215Z,36.53
2023-05-09T13:36:27.014Z,36.58
2023-05-09T13:38:54.571Z,32.99
2023-05-09T13:41:22.736Z,31.79
2023-05-09T13:43:50.361Z,32.30
2023-05-09T13:46:19.052Z,32.87
2023-05-09T13:48:48.161Z,33.16
2023-05-09T13:51:16.450Z,33.40
2023-05-09T13:53:43.964Z,33.35
2023-05-09T13:56:17.491Z,31.98
2023-05-09T13:58:45.989Z,31.59
2023-05-09T14:01:13.387Z,31.81
2023-05-09T14:03:41.025Z,33.71
2023-05-09T14:06:09.622Z,33.35
2023-05-09T14:08:37.890Z,34.94
2023-05-09T14:11:07.849Z,32.81
2023-05-09T14:13:35.347Z,33.58
2023-05-09T14:16:02.709Z,33.58
2023-05-09T14:18:30.227Z,33.93
2023-05-09T14:20:58.203Z,33.93
2023-05-09T14:23:26.570Z,33.74
2023-05-09T14:25:56.069Z,33.75
2023-05-09T14:28:23.660Z,33.08
2023-05-09T14:30:52.346Z,33.24
2023-05-09T14:33:21.709Z,31.88
2023-05-09T14:35:50.101Z,32.04
2023-05-09T14:38:18.640Z,32.17
2023-05-09T14:40:48.032Z,30.88
2023-05-09T14:43:16.134Z,31.35
2023-05-09T14:45:43.667Z,30.96
2023-05-09T14:48:10.982Z,32.38
2023-05-09T14:50:45.167Z,33.30
2023-05-09T14:53:13.595Z,34.00
2023-05-09T14:55:42.053Z,32.71
2023-05-09T14:58:09.754Z,35.49
2023-05-09T15:00:43.104Z,36.19
2023-05-09T15:03:12.078Z,36.41
2023-05-09T15:05:40.861Z,36.24
2023-05-09T15:08:10.181Z,36.79
2023-05-09T15:10:37.688Z,36.85
2023-05-09T15:13:05.925Z,35.63
2023-05-09T15:15:33.897Z,34.56
2023-05-09T15:18:03.662Z,35.18
2023-05-09T15:20:38.309Z,32.80
2023-05-09T15:23:08.810Z,31.95
2023-05-09T15:25:36.516Z,33.06
2023-05-09T15:28:03.759Z,32.27
2023-05-09T15:30:31.184Z,31.86
2023-05-09T15:32:59.451Z,31.29
2023-05-09T15:35:27.793Z,30.87
2023-05-09T15:37:55.582Z,31.33
2023-05-09T15:40:23.182Z,30.65
2023-05-09T15:42:51.793Z,30.31
2023-05-09T15:45:20.285Z,30.92
2023-05-09T15:47:47.907Z,31.05
2023-05-09T15:50:16.590Z,32.56
2023-05-09T15:52:45.877Z,31.52
2023-05-09T15:55:13.340Z,31.64
2023-05-09T15:57:40.752Z,30.80
2023-05-09T16:00:10.733Z,31.52
2023-05-09T16:02:38.015Z,32.48
2023-05-09T16:05:06.188Z,31.91
2023-05-09T16:07:35.653Z,32.92
2023-05-09T16:10:06.391Z,32.57
2023-05-09T16:12:35.850Z,33.56
2023-05-09T16:15:03.394Z,33.12
2023-05-09T16:17:34.688Z,33.54
2023-05-09T16:20:02.584Z,33.40
2023-05-09T16:22:29.701Z,33.20
2023-05-09T16:24:57.066Z,33.39
2023-05-09T16:27:24.598Z,33.53
2023-05-09T16:29:52.142Z,33.34
2023-05-09T16:32:21.560Z,33.85
2023-05-09T16:34:49.423Z,33.82
2023-05-09T16:37:19.035Z,34.16
2023-05-09T16:39:46.462Z,34.20
2023-05-09T16:42:14.993Z,34.31
2023-05-09T16:44:42.479Z,34.77
2023-05-09T16:47:09.915Z,34.42
2023-05-09T16:49:37.462Z,35.00
2023-05-09T16:52:05.984Z,34.80
2023-05-09T16:54:33.187Z,35.20
2023-05-09T16:57:00.185Z,35.21
2023-05-09T16:59:27.682Z,35.39
2023-05-09T17:01:54.682Z,35.59
2023-05-09T17:04:25.687Z,36.35
2023-05-09T17:06:53.553Z,36.10
2023-05-09T17:09:21.122Z,35.97
2023-05-09T17:11:49.173Z,36.14
2023-05-09T17:14:17.584Z,36.18
2023-05-09T17:16:45.067Z,36.55
2023-05-09T17:19:14.525Z,36.10
2023-05-09T17:21:42.009Z,36.85
2023-05-09T17:24:10.479Z,36.75
2023-05-09T17:26:38.963Z,37.10
2023-05-09T17:29:06.499Z,37.33
2023-05-09T17:31:33.931Z,37.48
2023-05-09T17:34:01.734Z,37.47
2023-05-09T17:36:29.312Z,37.76
2023-05-09T17:38:58.678Z,37.63
2023-05-09T17:41:25.702Z,38.20
2023-05-09T17:43:56.732Z,38.12
2023-05-09T17:46:24.520Z,38.27
2023-05-09T17:48:52.267Z,38.37
2023-05-09T17:51:19.604Z,38.07
2023-05-09T17:53:47.095Z,38.69
2023-05-09T17:56:14.542Z,38.88
2023-05-09T17:58:42.326Z,39.32
2023-05-09T18:01:16.227Z,39.29
2023-05-09T18:03:43.608Z,39.41
2023-05-09T18:06:11.132Z,39.60
2023-05-09T18:08:39.690Z,39.80
2023-05-09T18:11:06.898Z,40.28
2023-05-09T18:13:36.232Z,40.75
2023-05-09T18:16:03.480Z,40.94
2023-05-09T18:18:33.571Z,41.13
2023-05-09T18:21:05.751Z,41.11
2023-05-09T18:23:32.965Z,41.67
2023-05-09T18:26:00.482Z,42.46
2023-05-09T18:28:30.003Z,42.16
2023-05-09T18:31:01.505Z,42.36
2023-05-09T18:33:30.965Z,42.81
2023-05-09T18:35:59.453Z,43.21
2023-05-09T18:38:26.681Z,42.76
2023-05-09T18:40:54.145Z,42.98
2023-05-09T18:43:23.545Z,43.32
2023-05-09T18:45:52.253Z,43.19
2023-05-09T18:48:20.475Z,43.46
2023-05-09T18:50:48.024Z,43.77
2023-05-09T18:53:15.589Z,44.41
2023-05-09T18:55:43.152Z,44.41
2023-05-09T18:58:11.758Z,44.78
2023-05-09T19:00:39.941Z,45.25
2023-05-09T19:03:07.702Z,45.53
2023-05-09T19:05:36.063Z,45.62
2023-05-09T19:08:04.346Z,45.75
2023-05-09T19:10:32.314Z,45.84
2023-05-09T19:12:59.805Z,45.92
2023-05-09T19:15:31.132Z,46.09
2023-05-09T19:17:58.988Z,46.43
2023-05-09T19:20:26.763Z,46.48
2023-05-09T19:25:40.598Z,46.79
2023-05-09T19:28:15.354Z,47.57
2023-05-09T19:30:43.329Z,47.66
2023-05-09T19:33:12.246Z,47.57
2023-05-09T19:35:41.890Z,47.65
2023-05-09T19:38:12.715Z,47.56
2023-05-09T19:40:53.004Z,48.01
2023-05-09T19:43:21.055Z,48.11
2023-05-09T19:45:49.175Z,48.45
2023-05-09T19:48:17.680Z,48.26
2023-05-09T19:50:47.007Z,48.73
2023-05-09T19:53:14.688Z,48.89
2023-05-09T19:55:47.542Z,49.04
2023-05-09T19:58:17.625Z,49.14
2023-05-09T20:00:45.824Z,49.33
2023-05-09T20:03:13.628Z,49.42
2023-05-09T20:11:23.521Z,50.32
2023-05-09T20:13:57.529Z,50.07
2023-05-09T20:16:25.610Z,50.45
2023-05-09T20:18:56.527Z,50.60
2023-05-09T20:21:24.514Z,50.88
2023-05-09T20:23:52.682Z,50.95
2023-05-09T20:26:24.514Z,50.63
2023-05-09T20:28:55.325Z,50.90
2023-05-09T20:31:23.474Z,51.01
2023-05-09T20:33:52.322Z,51.03
2023-05-09T20:36:29.521Z,51.03
2023-05-09T20:38:58.721Z,51.21
2023-05-09T20:41:28.056Z,51.24
2023-05-09T20:43:59.756Z,51.44
2023-05-09T20:46:29.114Z,51.66
2023-05-09T20:49:04.760Z,51.79
2023-05-09T20:51:32.701Z,51.76
2023-05-09T20:54:00.489Z,51.75
2023-05-09T20:56:28.939Z,51.72
2023-05-09T20:58:56.678Z,51.74
2023-05-09T21:01:24.166Z,51.70
2023-05-09T21:03:52.807Z,51.77
2023-05-09T21:06:20.096Z,52.25
2023-05-09T21:08:48.688Z,52.29
2023-05-09T21:11:18.015Z,52.13
2023-05-09T21:13:45.571Z,52.36
2023-05-09T21:16:13.082Z,52.49
2023-05-09T21:18:40.494Z,52.77
2023-05-09T21:21:11.514Z,52.64
2023-05-09T21:23:39.026Z,53.07
2023-05-09T21:26:06.403Z,52.81
2023-05-09T21:28:33.850Z,52.96
2023-05-09T21:31:02.001Z,53.05
2023-05-09T21:33:29.910Z,53.04
2023-05-09T21:35:57.498Z,53.17
2023-05-09T21:38:26.799Z,53.33
2023-05-09T21:40:54.325Z,52.95
2023-05-09T21:43:21.690Z,53.26
2023-05-09T21:45:56.179Z,53.32
2023-05-09T21:48:24.759Z,53.50
2023-05-09T21:50:52.240Z,53.37
2023-05-09T21:53:19.712Z,53.61
2023-05-09T21:55:47.651Z,53.49
2023-05-09T21:58:15.062Z,53.24
2023-05-09T22:00:42.518Z,53.38
2023-05-09T22:03:10.254Z,53.35
2023-05-09T22:05:37.420Z,53.25
2023-05-09T22:08:05.025Z,53.17
2023-05-09T22:10:32.624Z,53.51
2023-05-09T22:13:01.965Z,53.70
2023-05-09T22:15:29.538Z,53.68
2023-05-09T22:17:56.765Z,54.00
2023-05-09T22:20:24.344Z,53.98
2023-05-09T22:22:52.672Z,54.11
2023-05-09T22:25:20.183Z,54.05
2023-05-09T22:27:47.655Z,54.33
2023-05-09T22:30:15.428Z,54.25
2023-05-09T22:32:43.360Z,54.48
2023-05-09T22:35:10.688Z,54.42
2023-05-09T22:37:37.949Z,54.71
2023-05-09T22:40:06.002Z,54.77
2023-05-09T22:42:34.939Z,55.13
2023-05-09T22:45:02.655Z,55.34
2023-05-09T22:47:29.833Z,55.25
2023-05-09T22:49:57.539Z,55.42
2023-05-09T22:52:26.490Z,55.57
2023-05-09T22:54:53.966Z,55.54
2023-05-09T22:57:23.889Z,55.60
2023-05-09T22:59:51.470Z,55.88
2023-05-09T23:02:18.560Z,55.88
2023-05-09T23:04:47.205Z,56.05
2023-05-09T23:07:15.494Z,55.97
2023-05-09T23:09:48.707Z,56.07
2023-05-09T23:12:16.231Z,56.18
2023-05-09T23:14:43.725Z,56.39
2023-05-09T23:17:11.267Z,56.36
2023-05-09T23:19:38.600Z,56.81
2023-05-09T23:22:06.049Z,56.89
2023-05-09T23:24:34.938Z,57.19
2023-05-09T23:27:05.546Z,57.28
2023-05-09T23:29:33.508Z,57.29
2023-05-09T23:32:00.960Z,57.08
2023-05-09T23:34:28.477Z,57.13
2023-05-09T23:36:55.990Z,57.20
2023-05-09T23:39:23.274Z,57.64
2023-05-09T23:41:50.782Z,57.76
2023-05-09T23:44:17.704Z,58.00
2023-05-09T23:46:45.276Z,58.17
2023-05-09T23:49:14.853Z,58.34
2023-05-09T23:51:42.136Z,58.53
2023-05-09T23:54:09.710Z,58.66
2023-05-09T23:56:37.235Z,58.60
2023-05-09T23:59:04.522Z,58.92
